Flight Track Log - Related Links

Times and Time Zones

All times are in EDT time to prevent confusion due to time zone crossing. See the GJS3707 flight status page for this flight to view local times or setup timezone preferences in your user account.

Time Position Orientation Groundspeed Altitude Reporting Facility
EDT Latitude Longitude Course Direction KTS MPH feet Rate Location/Type
Fri 03:29:23 PM 43.6261 -116.3528 315° West 250 288 6,300  Level Salt Lake Center
Fri 03:30:26 PM 43.6736 -116.2636 54° Northeast 284 327 8,600 2,226 Climbing Salt Lake Center
Fri 03:31:00 PM 43.6602 -115.5421 78° East  Level FlightAware Approximate
Fri 03:31:27 PM 43.6869 -116.1575 80° East 294 338 10,900  Level Salt Lake Center
Fri 03:32:00 PM 43.6786 -115.3689 83° East  Level FlightAware Approximate
Fri 03:32:29 PM 43.7028 -116.0225 81° East 318 366 12,500  Level Salt Lake Center
Fri 03:33:00 PM 43.7038 -115.1996 81° East  Level FlightAware Approximate
Fri 03:33:31 PM 43.7194 -115.8894 80° East 356 410 13,700  Level Salt Lake Center
Fri 03:34:33 PM 43.7381 -115.7200 81° East 394 453 15,600 1,694 Climbing Salt Lake Center
Fri 03:35:35 PM 43.7564 -115.5703 80° East 412 474 17,200 1,694 Climbing Salt Lake Center
Fri 03:36:37 PM 43.7758 -115.3903 81° East 424 488 19,100 1,694 Climbing Salt Lake Center
Fri 03:37:39 PM 43.7947 -115.2319 81° East 436 502 20,700 1,548 Climbing Salt Lake Center
Fri 03:38:41 PM 43.8153 -115.0447 81° East 443 510 22,300 1,355 Climbing Salt Lake Center
Fri 03:39:43 PM 43.8336 -114.8786 81° East 457 526 23,500 1,355 Climbing Salt Lake Center
Fri 03:40:45 PM 43.8550 -114.6844 81° East 458 527 25,100 1,210 Climbing Salt Lake Center
Fri 03:41:47 PM 43.8722 -114.5147 82° East 467 537 26,000 968 Climbing Salt Lake Center
Fri 03:42:49 PM 43.8922 -114.3406 81° East 477 549 27,100 1,210 Climbing Salt Lake Center
Fri 03:43:51 PM 43.9322 -114.1411 74° East 482 555 28,500 968 Climbing Salt Lake Center
Fri 03:44:53 PM 43.9664 -113.9664 75° East 491 565 29,100 581 Climbing Salt Lake Center
Fri 03:45:55 PM 44.0058 -113.7514 76° East 510 587 29,700 484 Climbing Salt Lake Center
Fri 03:46:57 PM 44.0414 -113.5667 75° East 516 594 30,100 532 Climbing Salt Lake Center
Fri 03:47:59 PM 44.0725 -113.3453 79° East 525 604 30,800 532 Climbing Salt Lake Center
Fri 03:49:01 PM 44.0758 -113.1494 89° East 529 609 31,200 629 Climbing Salt Lake Center
Fri 03:50:03 PM 44.0853 -112.9203 87° East 533 613 32,100 871 Climbing Salt Lake Center
Fri 03:51:05 PM 44.0908 -112.7267 88° East 527 606 33,000 1,016 Climbing Salt Lake Center
Fri 03:52:07 PM 44.0989 -112.5050 87° East 517 595 34,200 968 Climbing Salt Lake Center
Fri 03:53:09 PM 44.1031 -112.3156 88° East 514 592 35,000 387 Climbing Salt Lake Center
Fri 03:54:11 PM 44.1100 -112.0981 87° East 509 586 35,000  Level Salt Lake Center
Fri 03:55:13 PM 44.1167 -111.9131 87° East 504 580 35,000  Level Salt Lake Center
Fri 03:56:14 PM 44.1217 -111.7272 88° East 505 581 35,000  Level Salt Lake Center
Fri 03:57:16 PM 44.1258 -111.5106 88° East 505 581 35,000  Level Salt Lake Center
Fri 03:58:18 PM 44.1308 -111.2919 88° East 509 586 35,000  Level Salt Lake Center
Fri 03:59:20 PM 44.1339 -111.1042 89° East 512 589 35,000  Level Salt Lake Center
Fri 04:00:22 PM 44.1386 -110.8842 88° East 512 589 35,000  Level Salt Lake Center
Fri 04:01:24 PM 44.1403 -110.6958 89° East 512 589 35,000  Level Salt Lake Center
Fri 04:02:26 PM 44.1453 -110.5036 88° East 519 597 35,000  Level Salt Lake Center
Fri 04:03:28 PM 44.1486 -110.2814 89° East 519 597 35,000  Level Salt Lake Center
Fri 04:04:30 PM 44.1500 -110.0914 89° East 514 592 35,000  Level Salt Lake Center
Fri 04:05:32 PM 44.1531 -109.8669 89° East 518 596 35,000  Level Salt Lake Center
Fri 04:06:34 PM 44.1539 -109.6761 90° East 517 595 35,000  Level Salt Lake Center
Fri 04:07:36 PM 44.1553 -109.4517 89° East 513 590 35,000  Level Salt Lake Center
Fri 04:08:37 PM 44.1547 -109.2628 90° East 511 588 35,000  Level Salt Lake Center
Fri 04:09:39 PM 44.1558 -109.0442 90° East 508 585 35,000  Level Salt Lake Center
Fri 04:10:41 PM 44.1556 -108.8569 90° East 507 583 35,000  Level Salt Lake Center
Fri 04:11:43 PM 44.1556 -108.6408 90° East 503 579 35,000  Level Salt Lake Center
Fri 04:12:45 PM 44.1556 -108.4564 90° East 501 577 35,000  Level Salt Lake Center
Fri 04:13:47 PM 44.1547 -108.2414 90° East 500 575 35,000  Level Salt Lake Center
Fri 04:14:49 PM 44.1533 -108.0564 91° East 502 578 35,000  Level Salt Lake Center
Fri 04:15:51 PM 44.1517 -107.8733 91° East 498 573 35,000  Level Salt Lake Center
Fri 04:16:52 PM 44.1492 -107.6583 91° East 498 573 35,000  Level Salt Lake Center
Fri 04:17:54 PM 44.1472 -107.4764 91° East 494 568 35,000  Level Salt Lake Center
Fri 04:18:56 PM 44.1447 -107.2614 91° East 497 572 35,000  Level Salt Lake Center
Fri 04:19:58 PM 44.1417 -107.0783 91° East 496 571 35,000  Level Salt Lake Center
Fri 04:21:00 PM 44.1397 -106.8644 91° East 495 570 35,000  Level Salt Lake Center
Fri 04:22:02 PM 44.1364 -106.6817 91° East 494 568 35,000  Level Salt Lake Center
Fri 04:23:04 PM 44.1317 -106.4681 92° East 494 568 35,000  Level Salt Lake Center
Fri 04:23:40 PM 44.1292 -106.3503 92° East 491 565 35,000  Level Denver Center
Fri 04:24:42 PM 44.1264 -106.1661 91° East 494 568 35,000  Level Denver Center
Fri 04:25:44 PM 44.1219 -105.9550 92° East 491 565 35,000  Level Denver Center
Fri 04:26:46 PM 44.1156 -105.7742 93° East 491 565 35,000  Level Denver Center
Fri 04:27:48 PM 44.1108 -105.5933 92° East 490 564 35,000  Level Denver Center
Fri 04:28:50 PM 44.1047 -105.3822 92° East 489 563 35,000  Level Denver Center
Fri 04:29:52 PM 44.0994 -105.1994 92° East 490 564 35,000  Level Denver Center
Fri 04:30:54 PM 44.0922 -104.9875 93° East 491 565 35,000  Level Denver Center
Fri 04:31:56 PM 44.0856 -104.8047 93° East 492 566 35,000  Level Denver Center
Fri 04:32:58 PM 44.0783 -104.5919 93° East 493 567 35,000  Level Denver Center
Fri 04:34:00 PM 44.0717 -104.4103 93° East 492 566 35,000  Level Denver Center
Fri 04:35:02 PM 44.0622 -104.1994 93° East 489 563 35,000  Level Denver Center
Fri 04:36:04 PM 44.0553 -104.0181 93° East 491 565 35,000  Level Denver Center
Fri 04:37:06 PM 44.0475 -103.8383 93° East 488 562 35,000  Level Denver Center
Fri 04:38:08 PM 44.0386 -103.6283 93° East 488 562 35,000  Level Denver Center
Fri 04:39:10 PM 44.0303 -103.4500 94° East 485 558 35,000  Level Denver Center
Fri 04:40:24 PM 44.0208 -103.2461 94° East 475 547 35,000  Level Denver Center
Fri 04:41:26 PM 44.0094 -103.0075 94° East 482 555 35,000  Level Denver Center
Fri 04:42:28 PM 44.0011 -102.8281 94° East 486 559 35,000  Level Denver Center
Fri 04:43:30 PM 43.9894 -102.6200 94° East 489 563 35,000  Level Denver Center
Fri 04:44:32 PM 43.9772 -102.4314 95° East 491 565 35,000  Level Denver Center
Fri 04:45:33 PM 43.9644 -102.2425 95° East 493 567 35,000  Level Denver Center
Fri 04:46:35 PM 43.9525 -102.0536 95° East 494 568 35,000  Level Denver Center
Fri 04:47:37 PM 43.9394 -101.8628 95° East 496 571 35,000  Level Denver Center
Fri 04:48:39 PM 43.9311 -101.6786 94° East 487 560 35,000  Level Denver Center
Fri 04:49:12 PM 43.9239 -101.5675 95° East 489 563 35,000  Level Minneapolis Center
Fri 04:50:14 PM 43.9117 -101.3825 95° East 487 560 35,000  Level Minneapolis Center
Fri 04:50:43 PM 43.9058 -101.2739 94° East 479 551 35,000  Level Denver Center
Fri 04:51:16 PM 43.9011 -101.2003 95° East 482 555 35,000  Level Minneapolis Center
Fri 04:51:45 PM 43.8928 -101.0897 96° East 480 552 35,000  Level Denver Center
Fri 04:52:18 PM 43.8861 -100.9822 95° East 477 549 35,000  Level Minneapolis Center
Fri 04:53:20 PM 43.8731 -100.8014 96° East 475 547 35,000  Level Minneapolis Center
Fri 04:54:22 PM 43.8606 -100.6222 95° East 472 543 35,000  Level Minneapolis Center
Fri 04:55:24 PM 43.8469 -100.4428 96° East 471 542 35,000  Level Minneapolis Center
Fri 04:56:26 PM 43.8336 -100.2642 96° East 469 540 35,000  Level Minneapolis Center
Fri 04:57:28 PM 43.8200 -100.0839 96° East 471 542 35,000  Level Minneapolis Center
Fri 04:58:31 PM 43.8028 -99.8656 96° East 475 547 35,000  Level Minneapolis Center
Fri 04:59:36 PM 43.7886 -99.6850 96° East 476 548 35,000  Level Minneapolis Center
Fri 05:00:38 PM 43.7739 -99.5028 96° East 477 549 35,000  Level Minneapolis Center
Fri 05:01:40 PM 43.7608 -99.3225 96° East 475 547 35,000  Level Minneapolis Center
Fri 05:02:42 PM 43.7417 -99.1114 97° East 470 541 35,000  Level Minneapolis Center
Fri 05:03:44 PM 43.7106 -98.9358 104° East 472 543 35,000  Level Minneapolis Center
Fri 05:04:46 PM 43.6689 -98.7669 109° East 471 542 35,000  Level Minneapolis Center
Fri 05:05:48 PM 43.6300 -98.5894 107° East 481 554 35,000  Level Minneapolis Center
Fri 05:06:50 PM 43.5919 -98.4119 106° East 485 558 35,000  Level Minneapolis Center
Fri 05:07:52 PM 43.5481 -98.1997 106° East 482 555 35,000  Level Minneapolis Center
Fri 05:08:55 PM 43.5100 -98.0225 106° East 484 557 35,000  Level Minneapolis Center
Fri 05:09:57 PM 43.4717 -97.8450 107° East 484 557 35,000  Level Minneapolis Center
Fri 05:10:59 PM 43.4353 -97.6675 106° East 483 556 35,000  Level Minneapolis Center
Fri 05:12:01 PM 43.3967 -97.4886 106° East 488 562 35,000  Level Minneapolis Center
Fri 05:13:03 PM 43.3583 -97.3108 106° East 489 563 35,000  Level Minneapolis Center
Fri 05:14:05 PM 43.3150 -97.0992 106° East 486 559 35,000  Level Minneapolis Center
Fri 05:15:07 PM 43.2769 -96.9214 106° East 487 560 35,000  Level Minneapolis Center
Fri 05:16:09 PM 43.2389 -96.7458 107° East 484 557 35,000  Level Minneapolis Center
Fri 05:17:11 PM 43.2014 -96.5678 106° East 488 562 35,000  Level Minneapolis Center
Fri 05:18:13 PM 43.1636 -96.3925 106° East 485 558 35,000  Level Minneapolis Center
Fri 05:19:15 PM 43.1197 -96.1800 106° East 486 559 35,000  Level Minneapolis Center
Fri 05:20:18 PM 43.0825 -96.0022 106° East 488 562 35,000  Level Minneapolis Center
Fri 05:21:20 PM 43.0442 -95.8269 107° East 486 559 35,000  Level Minneapolis Center
Fri 05:22:22 PM 43.0033 -95.6492 107° East 491 565 35,000  Level Minneapolis Center
Fri 05:23:24 PM 42.9619 -95.4700 107° East 497 572 35,000  Level Minneapolis Center
Fri 05:24:26 PM 42.9372 -95.2467 99° East 499 574 35,000  Level Minneapolis Center
Fri 05:25:28 PM 42.9297 -95.0586 93° East 499 574 35,000  Level Minneapolis Center
Fri 05:26:30 PM 42.9228 -94.8711 93° East 497 572 35,000  Level Minneapolis Center
Fri 05:27:32 PM 42.9161 -94.6853 93° East 495 570 35,000  Level Minneapolis Center
Fri 05:28:34 PM 42.9075 -94.4739 93° East 498 573 35,000  Level Minneapolis Center
Fri 05:29:36 PM 42.8997 -94.2894 93° East 495 570 35,000  Level Minneapolis Center
Fri 05:30:38 PM 42.8894 -94.1036 94° East 496 571 35,000  Level Minneapolis Center
Fri 05:31:40 PM 42.8831 -93.9186 93° East 495 570 35,000  Level Minneapolis Center
Fri 05:32:43 PM 42.8728 -93.7322 94° East 496 571 35,000  Level Minneapolis Center
Fri 05:33:45 PM 42.8611 -93.5086 94° East 498 573 35,000  Level Minneapolis Center
Fri 05:34:47 PM 42.8528 -93.3247 93° East 495 570 35,000  Level Minneapolis Center
Fri 05:35:49 PM 42.8428 -93.1372 94° East 497 572 35,000  Level Minneapolis Center
Fri 05:36:21 PM 42.8364 -93.0244 94° East 496 571 35,000 -128 Level Chicago Center
Fri 05:37:23 PM 42.8269 -92.8389 94° East 498 573 34,800 -677 Descending Chicago Center
Fri 05:38:25 PM 42.8142 -92.6494 95° East 508 585 33,600 -1,161 Descending Chicago Center
Fri 05:39:27 PM 42.8039 -92.4564 94° East 517 595 32,400 -1,258 Descending Chicago Center
Fri 05:40:29 PM 42.7892 -92.2219 95° East 524 603 31,000 -677 Descending Chicago Center
Fri 05:41:31 PM 42.7786 -92.0281 94° East 521 600 31,000  Level Chicago Center
Fri 05:42:33 PM 42.7667 -91.8383 95° East 512 589 31,000  Level Chicago Center
Fri 05:43:35 PM 42.7556 -91.6369 94° East 511 588 31,000  Level Chicago Center
Fri 05:44:38 PM 42.7408 -91.4292 95° East 522 601 31,000  Level Chicago Center
Fri 05:45:40 PM 42.7278 -91.2353 95° East 530 610 31,000  Level Chicago Center
Fri 05:46:42 PM 42.7136 -91.0425 96° East 520 598 31,000  Level Chicago Center
Fri 05:47:44 PM 42.6989 -90.8508 96° East 517 595 31,000 -387 Level Chicago Center
Fri 05:48:46 PM 42.6817 -90.6183 96° East 521 600 30,200 -1,161 Descending Chicago Center
Fri 05:49:48 PM 42.6681 -90.4278 95° East 514 592 28,600 -1,548 Descending Chicago Center
Fri 05:50:50 PM 42.6528 -90.2422 96° East 499 574 27,000 -1,694 Descending Chicago Center
Fri 05:51:52 PM 42.6381 -90.0622 96° East 487 560 25,100 -2,081 Descending Chicago Center
Fri 05:52:54 PM 42.6219 -89.8592 96° East 472 543 22,700 -2,177 Descending Chicago Center
Fri 05:53:56 PM 42.6081 -89.6867 96° East 462 532 20,600 -2,032 Descending Chicago Center
Fri 05:54:58 PM 42.5942 -89.5169 96° East 454 522 18,500 -1,839 Descending Chicago Center
Fri 05:56:00 PM 42.5792 -89.3517 97° East 444 511 16,800 -2,016 Descending Chicago Center
Fri 05:57:03 PM 42.5625 -89.1631 97° East 429 494 14,300 -2,208 Descending Chicago Center
Fri 05:58:05 PM 42.5319 -89.0208 106° East 399 459 12,200 -1,597 Descending Chicago Center
Fri 05:59:07 PM 42.4906 -88.8817 112° Southeast 397 457 11,000 -1,065 Descending Chicago Center
Fri 06:00:09 PM 42.4494 -88.7464 112° Southeast 391 450 10,000 -726 Descending Chicago Center
Fri 06:01:11 PM 42.4169 -88.6361 112° Southeast 319 367 9,500 -484 Descending Chicago Center
Fri 06:02:13 PM 42.3792 -88.5172 113° Southeast 297 342 9,000 -484 Descending Chicago Center
Fri 06:03:15 PM 42.3222 -88.4494 139° Southeast 303 349 8,500 -484 Descending Chicago Center
Fri 06:04:17 PM 42.2417 -88.4272 168° South 295 339 8,000 -242 Descending Chicago Center
Fri 06:05:19 PM 42.1625 -88.4022 167° South 293 337 8,000 -629 Level Chicago Center
Fri 06:06:21 PM 42.0689 -88.3717 166° South 291 335 6,700 -1,051 Descending Chicago Center
Fri 06:08:16 PM 41.9833 -88.2667 138° Southeast 213 245 4,900 -802 Descending Chicago TRACON
Fri 06:09:28 PM 41.9706 -88.1939 103° East 190 219 4,200 -672 Descending Chicago Center
Fri 06:10:30 PM 41.9664 -88.1314 95° East 180 207 3,400 -774 Descending Chicago Center

Login

Don't have an account? Register now (free) for customized features, flight alerts, and more!